ADDS METAR Data INFO
IDs: Format: Raw Decoded Include TAF

Data at: 1543 UTC 12 Dec 2017

KRSV 121535Z AUTO 33016G23KT 10SM SCT031 M04/M11 A3016 RMK AO2 T10371107
KRSV 121520Z AUTO 32016G21KT 10SM SCT031 M03/M10 A3016 RMK AO2 T10341103
KRSV 121455Z AUTO 32014G20KT 10SM SCT031 M03/M10 A3015 RMK AO2 T10321099
KRSV 121435Z AUTO 34012G17KT 10SM CLR M03/M10 A3014 RMK AO2 T10351102
KRSV 121415Z AUTO 35016G24KT 10SM CLR M04/M10 A3013 RMK AO2 T10371105
KRSV 121355Z AUTO 34019G24KT 10SM CLR M04/M10 A3013 RMK AO2 T10361104
KRSV 121335Z AUTO 35018G25KT 10SM SCT038 M03/M10 A3012 RMK AO2 T10351101
KRSV 121315Z AUTO 34016G21KT 10SM BKN036 M03/M08 A3011 RMK AO2 T10281085
KRSV 121255Z AUTO 34014G22KT 10SM SCT032 BKN045 M02/M08 A3009 RMK AO2 T10221080
KRSV 121235Z AUTO 33018G26KT 10SM SCT032 OVC043 M01/M07 A3008 RMK AO2 T10111075
KRSV 121215Z AUTO 33018G26KT 10SM OVC032 00/M07 A3007 RMK AO2 T10051070
KRSV 121155Z AUTO 32017G23KT 10SM BKN034 OVC040 00/M06 A3004 RMK AO2 T00031058 10030 20002
KRSV 121135Z AUTO 31012G17KT 10SM OVC038 00/M06 A3003 RMK AO2 T00041059
KRSV 121115Z AUTO 33016G19KT 10SM OVC036 00/M06 A3003 RMK AO2 T00021058
KRSV 121055Z AUTO 34014G18KT 10SM OVC038 00/M06 A3002 RMK AO2 T00021060
KRSV 121035Z AUTO 34018G22KT 10SM OVC034 00/M05 A3002 RMK AO2 T00031055
KRSV 121015Z AUTO 33011G21KT 10SM OVC034 00/M05 A3002 RMK AO2 T00031052
KRSV 120955Z AUTO 33018G25KT 10SM SCT025 OVC030 01/M04 A3001 RMK AO2 T00051043
KRSV 120935Z AUTO 33020G26KT 10SM OVC023 01/M03 A3001 RMK AO2 T00071031
KRSV 120915Z AUTO 33017G27KT 10SM OVC019 01/M02 A3000 RMK AO2 T00091021
KRSV 120855Z AUTO 33015G21KT 10SM OVC019 01/M01 A3000 RMK AO2 T00081015
KRSV 120835Z AUTO 33012G21KT 7SM OVC017 01/M01 A2999 RMK AO2 T00091014
KRSV 120815Z AUTO 33017G23KT 10SM OVC017 01/M02 A2998 RMK AO2 T00121016
KRSV 120755Z AUTO 32016G19KT 7SM UP OVC015 01/M01 A2998 RMK AO2 T00121008
KRSV 120735Z AUTO 32012G18KT 7SM OVC015 01/M01 A2997 RMK AO2 T00121006
KRSV 120715Z AUTO 33015G24KT 7SM OVC015 01/M01 A2997 RMK AO2 T00131010
KRSV 120655Z AUTO 33020G25KT 7SM OVC015 02/00 A2996 RMK AO2 T00171003
KRSV 120635Z AUTO 33017G23KT 10SM OVC015 02/00 A2995 RMK AO2 T00221002
KRSV 120615Z AUTO 33018G23KT 10SM OVC017 03/00 A2995 RMK AO2 T00261001
KRSV 120555Z AUTO 32018G27KT 10SM OVC019 03/00 A2994 RMK AO2 T00300000 10083 20030 401161072
KRSV 120535Z AUTO 32017G28KT 10SM OVC021 04/00 A2993 RMK AO2 T00350000
KRSV 120515Z AUTO 32015G21KT 10SM OVC023 04/00 A2992 RMK AO2 T00381001
KRSV 120455Z AUTO 31012G20KT 10SM OVC025 04/00 A2991 RMK AO2 T00411005
KRSV 120435Z AUTO 32014G22KT 10SM OVC029 04/M01 A2990 RMK AO2 T00431006
KRSV 120415Z AUTO 32013G17KT 10SM OVC031 05/M01 A2989 RMK AO2 T00461009
KRSV 120355Z AUTO 31010KT 10SM OVC031 05/00 A2987 RMK AO2 T00500000
KRSV 120335Z AUTO 31011G18KT 10SM BKN031 OVC038 05/00 A2987 RMK AO2 T00520000
KRSV 120315Z AUTO 30015G21KT 10SM BKN034 OVC040 06/00 A2986 RMK AO2 T00551003
KRSV 120255Z AUTO 30018G24KT 10SM OVC036 06/00 A2985 RMK AO2 T00561005
KRSV 120235Z AUTO 31015G26KT 10SM OVC036 06/00 A2985 RMK AO2 T00601005
KRSV 120215Z AUTO 31012G20KT 10SM OVC038 06/00 A2984 RMK AO2 T00621002
KRSV 120155Z AUTO 31017G20KT 10SM BKN040 OVC050 07/00 A2983 RMK AO2 T00661001
KRSV 120135Z AUTO 29016G24KT 10SM SCT044 OVC050 07/00 A2982 RMK AO2 T00711001
KRSV 120115Z AUTO 28021G31KT 10SM OVC050 08/00 A2981 RMK AO2 T00751003
KRSV 120055Z AUTO 29018G25KT 10SM OVC050 08/M01 A2980 RMK AO2 T00801006
KRSV 120035Z AUTO 28020G27KT 10SM SCT055 BKN065 08/M01 A2979 RMK AO2 T00801012
KRSV 120015Z AUTO 28017G23KT 10SM BKN065 OVC075 08/M02 A2979 RMK AO2 T00821018
KRSV 112355Z AUTO 28015G21KT 10SM BKN065 08/M03 A2978 RMK AO2 T00801026 10116 20069
KRSV 112335Z AUTO 28013KT 10SM CLR 08/M03 A2978 RMK AO2 T00751032
KRSV 112315Z AUTO 29017G28KT 10SM CLR 08/M03 A2977 RMK AO2 T00811035
KRSV 112255Z AUTO 29019G32KT 10SM CLR 09/M04 A2976 RMK AO2 T00901037
KRSV 112235Z AUTO 27023G28KT 10SM CLR 11/M04 A2973 RMK AO2 T01061039
KRSV 112215Z AUTO 26012KT 10SM CLR 11/M01 A2971 RMK AO2 T01051011
KRSV 112155Z AUTO 24011KT 10SM CLR 11/M01 A2970 RMK AO2 T01101008
KRSV 112135Z AUTO 22014G18KT 10SM CLR 12/M01 A2969 RMK AO2 T01161006
KRSV 112115Z AUTO 22012KT 10SM CLR 11/00 A2969 RMK AO2 T01121003
KRSV 112055Z AUTO 21014KT 10SM CLR 11/00 A2970 RMK AO2 T01101002
KRSV 112035Z AUTO 20012G16KT 10SM CLR 11/00 A2969 RMK AO2 T01081001
KRSV 112015Z AUTO 20012G19KT 10SM CLR 11/00 A2970 RMK AO2 T01071002
KRSV 111955Z AUTO 20014G20KT 10SM CLR 10/00 A2971 RMK AO2 T01041003
KRSV 111935Z AUTO 19019G23KT 10SM CLR 11/00 A2971 RMK AO2 T01081005
KRSV 111915Z AUTO 19015G21KT 10SM CLR 10/00 A2972 RMK AO2 T01041005
KRSV 111855Z AUTO 19019G24KT 10SM CLR 10/M01 A2974 RMK AO2 T01001006
KRSV 111835Z AUTO 19014G19KT 10SM CLR 09/00 A2977 RMK AO2 T00921005
KRSV 111815Z AUTO 19012KT 10SM CLR 08/M01 A2979 RMK AO2 T00831006
KRSV 111755Z AUTO 18012G16KT 10SM CLR 08/M01 A2982 RMK AO2 T00751011 10077 21030
KRSV 111735Z AUTO 19010KT 10SM CLR 06/M01 A2986 RMK AO2 T00621009
KRSV 111715Z AUTO 19008KT 10SM CLR 05/M01 A2988 RMK AO2 T00501014
KRSV 111655Z AUTO 20010KT 10SM CLR 05/M02 A2991 RMK AO2 T00461016
KRSV 111635Z AUTO 19013KT 10SM CLR 04/M02 A2991 RMK AO2 T00411016
KRSV 111615Z AUTO 18011KT 10SM CLR 03/M01 A2994 RMK AO2 T00301015
KRSV 111555Z AUTO 18011KT 10SM CLR 02/M02 A2997 RMK AO2 T00161024
KRSV 111535Z AUTO 19010KT 10SM CLR 02/M02 A2999 RMK AO2 T00151021
KRSV 111515Z AUTO 18007KT 10SM SCT120 01/M02 A3001 RMK AO2 T00071025
KRSV 111455Z AUTO 19008KT 10SM CLR 00/M03 A3002 RMK AO2 T00001026
KRSV 111435Z AUTO 20005KT 10SM CLR 00/M03 A3003 RMK AO2 T10021027
KRSV 111415Z AUTO 17004KT 10SM CLR M01/M03 A3004 RMK AO2 T10071030
KRSV 111355Z AUTO 17006KT 10SM CLR M01/M03 A3005 RMK AO2 T10091033
KRSV 111335Z AUTO 19003KT 10SM CLR M01/M03 A3006 RMK AO2 T10121035
KRSV 111315Z AUTO 19004KT 10SM CLR M01/M04 A3007 RMK AO2 T10131037
KRSV 111255Z AUTO 18003KT 10SM CLR M02/M03 A3008 RMK AO2 T10181035
KRSV 111235Z AUTO 17003KT 10SM CLR M02/M04 A3008 RMK AO2 T10201038
KRSV 111215Z AUTO 00000KT 10SM CLR M02/M04 A3008 RMK AO2 T10251039
KRSV 111155Z AUTO 00000KT 10SM CLR M03/M04 A3009 RMK AO2 T10301042 11025 21072
KRSV 111135Z AUTO 17003KT 10SM CLR M03/M04 A3009 RMK AO2 T10321043
KRSV 111115Z AUTO 15004KT 10SM SCT100 M05/M06 A3010 RMK AO2 T10491057
KRSV 111055Z AUTO 00000KT 10SM SCT100 M05/M06 A3011 RMK AO2 T10501057
KRSV 111035Z AUTO 00000KT 10SM CLR M06/M06 A3012 RMK AO2 T10561065
KRSV 111015Z AUTO 00000KT 10SM CLR M06/M07 A3011 RMK AO2 T10621070
KRSV 110955Z AUTO 00000KT 10SM CLR M06/M07 A3011 RMK AO2 T10651072
KRSV 110935Z AUTO 20003KT 10SM CLR M06/M07 A3012 RMK AO2 T10651074
KRSV 110915Z AUTO 00000KT 10SM CLR M06/M07 A3012 RMK AO2 T10651075
KRSV 110855Z AUTO 00000KT 10SM CLR M07/M08 A3013 RMK AO2 T10721081
KRSV 110835Z AUTO 00000KT 10SM CLR M06/M07 A3012 RMK AO2 T10601069
KRSV 110815Z AUTO 00000KT 10SM CLR M06/M07 A3012 RMK AO2 T10571067
KRSV 110755Z AUTO 00000KT 10SM CLR M06/M07 A3013 RMK AO2 T10611071
KRSV 110735Z AUTO 00000KT 10SM CLR M06/M07 A3013 RMK AO2 T10641075
KRSV 110715Z AUTO 00000KT 10SM CLR M06/M07 A3013 RMK AO2 T10571066
KRSV 110655Z AUTO 00000KT 10SM CLR M06/M07 A3014 RMK AO2 T10561071
KRSV 110635Z AUTO 00000KT 10SM CLR M05/M07 A3014 RMK AO2 T10511067
KRSV 110615Z AUTO 28003KT 10SM CLR M05/M07 A3014 RMK AO2 T10541072
KRSV 110555Z AUTO 00000KT 10SM CLR M02/M05 A3015 RMK AO2 T10251049 10018 21028 400551076
KRSV 110535Z AUTO 33003KT 10SM CLR M02/M05 A3015 RMK AO2 T10221050
KRSV 110515Z AUTO 33003KT 10SM CLR M02/M05 A3015 RMK AO2 T10211050
KRSV 110455Z AUTO 00000KT 10SM CLR M02/M06 A3015 RMK AO2 T10221056
KRSV 110435Z AUTO 34003KT 10SM CLR 00/M05 A3014 RMK AO2 T10051046
KRSV 110415Z AUTO 34005KT 10SM CLR 00/M04 A3014 RMK AO2 T00001043
KRSV 110355Z AUTO 33006KT 10SM CLR 00/M04 A3014 RMK AO2 T00001042